Time;durP1;ratioP1;P1;durP2;ratioP2;P2;SDS_P1;SDS_P2;PMS_P1;PMS_P2;Temp;Humidity;BMP_temperature;BMP_pressure;BME280_temperature;BME280_humidity;BME280_pressure;Samples;Min_cycle;Max_cycle;Signal;HPM_P1;HPM_P2
2022/10/17 00:01:51;;;;;;;20.77;12.97;;;;;;;13.28;99.46;101308.20;3648168;80;26017;-83
2022/10/17 00:06:49;;;;;;;18.50;12.93;;;;;;;13.30;99.34;101306.66;3664236;80;99046;-83
2022/10/17 00:11:50;;;;;;;24.33;15.63;;;;;;;13.36;99.52;101331.43;3664690;80;26476;-83
2022/10/17 00:16:51;;;;;;;27.07;14.30;;;;;;;13.42;100.00;101323.62;3638313;80;99479;-83
2022/10/17 00:21:52;;;;;;;22.93;13.47;;;;;;;13.51;100.00;101326.92;3666353;80;34942;-83
2022/10/17 00:26:53;;;;;;;23.53;14.33;;;;;;;13.53;100.00;101331.48;3643576;80;99384;-83
2022/10/17 00:31:56;;;;;;;23.73;15.50;;;;;;;13.59;100.00;101321.10;3641024;80;34903;-83
2022/10/17 00:36:56;;;;;;;23.07;14.50;;;;;;;13.66;100.00;101334.20;3643676;80;99386;-83
2022/10/17 00:41:57;;;;;;;21.30;14.83;;;;;;;13.72;100.00;101329.94;3635275;80;34877;-83
2022/10/17 00:47:08;;;;;;;21.57;15.03;;;;;;;13.78;100.00;101324.27;3632281;80;99464;-83
2022/10/17 00:52:23;;;;;;;25.08;16.85;;;;;;;13.83;100.00;101323.94;3637102;80;32086;-83
2022/10/17 00:57:26;;;;;;;25.23;15.35;;;;;;;13.85;100.00;101316.86;3645543;80;99624;-83
2022/10/17 01:02:27;;;;;;;22.55;13.75;;;;;;;13.92;100.00;101314.77;3633921;80;32256;-83
2022/10/17 01:07:29;;;;;;;19.80;11.93;;;;;;;13.94;100.00;101330.41;3646583;80;99011;-83
2022/10/17 01:12:58;;;;;;;18.35;12.18;;;;;;;13.94;100.00;101339.52;3637860;80;32969;-83
2022/10/17 01:18:14;;;;;;;18.43;12.83;;;;;;;13.94;100.00;101351.97;3616436;79;99546;-83
2022/10/17 01:24:10;;;;;;;23.05;15.88;;;;;;;13.96;100.00;101360.67;3664207;80;31660;-83
2022/10/17 01:29:41;;;;;;;24.98;18.12;;;;;;;13.99;100.00;101360.52;3621032;80;99609;-83
2022/10/17 01:34:55;;;;;;;24.20;15.70;;;;;;;14.03;100.00;101358.02;3647756;80;31639;-83
2022/10/17 01:40:10;;;;;;;23.92;16.40;;;;;;;14.08;100.00;101365.98;3651626;80;99299;-83
2022/10/17 01:45:33;;;;;;;24.55;17.85;;;;;;;14.09;100.00;101357.08;3633629;80;32270;-83
2022/10/17 01:50:41;;;;;;;29.05;18.35;;;;;;;14.03;100.00;101321.23;3637286;80;99214;-83
2022/10/17 01:55:45;;;;;;;24.23;16.77;;;;;;;14.18;100.00;101318.22;3661469;80;31657;-83
2022/10/17 02:00:48;;;;;;;19.40;13.75;;;;;;;14.20;100.00;101320.65;3648347;80;99292;-83
2022/10/17 02:05:49;;;;;;;23.62;17.07;;;;;;;14.19;100.00;101337.87;3658645;80;31716;-83
2022/10/17 02:11:03;;;;;;;25.10;18.20;;;;;;;14.19;100.00;101348.94;3620745;80;98980;-83
2022/10/17 02:16:46;;;;;;;28.38;18.40;;;;;;;14.25;100.00;101346.04;3639290;80;31630;-83
2022/10/17 02:22:40;;;;;;;25.97;17.65;;;;;;;14.28;100.00;101343.09;3557599;81;30750;-83
2022/10/17 02:27:49;;;;;;;24.57;17.62;;;;;;;14.34;100.00;101337.42;3585095;79;99933;-83
2022/10/17 02:33:06;;;;;;;23.85;16.45;;;;;;;14.38;100.00;101341.81;3564044;79;32890;-83
2022/10/17 02:38:10;;;;;;;25.43;17.95;;;;;;;14.39;100.00;101344.78;3580494;79;98967;-83
2022/10/17 02:43:12;;;;;;;26.25;18.02;;;;;;;14.42;100.00;101344.03;3613450;79;32981;-83
2022/10/17 02:48:36;;;;;;;26.90;18.37;;;;;;;14.46;100.00;101355.14;3618155;80;99085;-82
2022/10/17 02:53:42;;;;;;;23.75;17.25;;;;;;;14.52;100.00;101350.85;3602899;81;32109;-83
2022/10/17 02:58:49;;;;;;;24.20;17.17;;;;;;;14.56;100.00;101359.39;3620717;81;99369;-83
2022/10/17 03:03:49;;;;;;;;;;;;;;;14.58;100.00;101364.56;3628964;81;25894;-83
2022/10/17 03:08:50;;;;;;;30.33;20.30;;;;;;;14.59;100.00;101355.87;3606230;81;85085;-83
2022/10/17 03:13:51;;;;;;;29.80;19.93;;;;;;;14.59;100.00;101357.26;3613924;79;25859;-83
2022/10/17 03:18:51;;;;;;;30.23;20.70;;;;;;;14.58;100.00;101359.83;3628981;80;99486;-84
2022/10/17 03:23:52;;;;;;;26.50;18.57;;;;;;;14.54;100.00;101365.11;3645439;80;26538;-83
2022/10/17 03:28:53;;;;;;;23.73;16.47;;;;;;;14.48;100.00;101352.20;3646357;80;99618;-82
2022/10/17 03:33:54;;;;;;;25.48;17.05;;;;;;;14.40;100.00;101365.76;3662289;80;34952;-83
2022/10/17 03:38:55;;;;;;;24.70;18.15;;;;;;;14.34;100.00;101381.12;3641600;80;99104;-83
2022/10/17 03:43:55;;;;;;;25.00;17.83;;;;;;;14.28;100.00;101380.48;3639576;80;32143;-83
2022/10/17 03:48:56;;;;;;;25.40;17.30;;;;;;;14.22;100.00;101374.47;3654703;80;99037;-83
2022/10/17 03:53:57;;;;;;;26.43;16.67;;;;;;;14.15;100.00;101373.56;3635760;80;29273;-83
2022/10/17 03:58:57;;;;;;;24.63;16.25;;;;;;;14.09;100.00;101376.45;3650511;80;99617;-83
2022/10/17 04:03:58;;;;;;;25.90;16.90;;;;;;;14.03;100.00;101383.50;3642162;80;32450;-83
2022/10/17 04:09:00;;;;;;;26.65;17.45;;;;;;;13.95;100.00;101375.70;3643057;80;99479;-84
2022/10/17 04:14:01;;;;;;;31.02;18.77;;;;;;;13.90;100.00;101380.78;3665682;80;33010;-84
2022/10/17 04:19:01;;;;;;;23.87;15.50;;;;;;;13.85;100.00;101370.05;3657430;80;99074;-83
2022/10/17 04:24:03;;;;;;;23.73;16.05;;;;;;;13.78;100.00;101377.66;3606246;79;33126;-84
2022/10/17 04:29:04;;;;;;;24.63;16.30;;;;;;;13.73;100.00;101384.90;3602869;80;99077;-84
2022/10/17 04:34:05;;;;;;;25.10;15.93;;;;;;;13.68;100.00;101382.45;3620704;81;29277;-84
2022/10/17 04:39:06;;;;;;;20.03;14.20;;;;;;;13.62;100.00;101390.09;3607576;80;99291;-84
2022/10/17 04:44:06;;;;;;;24.57;16.00;;;;;;;13.58;100.00;101396.16;3616413;80;25913;-83
2022/10/17 04:49:08;;;;;;;20.57;15.23;;;;;;;13.53;100.00;101408.92;3605311;81;99493;-84
2022/10/17 04:54:09;;;;;;;22.20;14.97;;;;;;;13.45;100.00;101401.09;3599007;81;25987;-84
2022/10/17 04:59:09;;;;;;;23.50;16.83;;;;;;;13.41;100.00;101403.61;3603569;80;99471;-83
2022/10/17 05:04:10;;;;;;;28.35;18.32;;;;;;;13.35;100.00;101404.49;3634724;79;25922;-84
2022/10/17 05:09:11;;;;;;;26.60;17.77;;;;;;;13.29;100.00;101396.31;3625140;80;99345;-84
2022/10/17 05:14:12;;;;;;;27.23;17.40;;;;;;;13.24;100.00;101393.86;3624576;79;32987;-84
2022/10/17 05:19:13;;;;;;;28.37;20.17;;;;;;;13.20;100.00;101402.67;3607968;79;99069;-84
2022/10/17 05:24:14;;;;;;;29.00;19.87;;;;;;;13.16;100.00;101395.50;3654632;80;32935;-85
2022/10/17 05:29:15;;;;;;;33.00;21.83;;;;;;;13.13;100.00;101399.80;3639128;80;99612;-84
2022/10/17 05:34:16;;;;;;;33.10;22.43;;;;;;;13.11;100.00;101409.06;3670300;80;32961;-85
2022/10/17 05:39:18;;;;;;;31.67;21.40;;;;;;;13.08;100.00;101412.55;3661599;80;99429;-83
2022/10/17 05:44:19;;;;;;;31.40;21.93;;;;;;;13.06;100.00;101414.90;3665076;80;32897;-84
2022/10/17 05:49:20;;;;;;;34.67;22.90;;;;;;;13.06;100.00;101416.28;3643373;80;99217;-84
2022/10/17 05:54:21;;;;;;;36.90;24.97;;;;;;;13.06;100.00;101423.19;3665789;80;32881;-84
2022/10/17 05:59:25;;;;;;;33.77;23.80;;;;;;;13.08;100.00;101436.64;3650253;80;99391;-83
2022/10/17 06:04:26;;;;;;;32.47;23.73;;;;;;;13.08;100.00;101433.28;3639719;80;45376;-84
2022/10/17 06:09:27;;;;;;;32.83;23.80;;;;;;;13.12;100.00;101445.77;3648373;80;99221;-84
2022/10/17 06:14:28;;;;;;;36.80;25.83;;;;;;;13.14;100.00;101438.70;3658208;80;33629;-84
2022/10/17 06:19:29;;;;;;;34.87;24.83;;;;;;;13.17;100.00;101444.08;3641544;80;99120;-85
2022/10/17 06:24:29;;;;;;;38.83;26.43;;;;;;;13.24;100.00;101453.90;3633130;80;34439;-84
2022/10/17 06:29:30;;;;;;;41.80;28.33;;;;;;;13.29;100.00;101457.13;3621176;79;99223;-83
2022/10/17 06:34:31;;;;;;;42.60;28.83;;;;;;;13.36;100.00;101459.22;3517312;83;32965;-84
2022/10/17 06:39:34;;;;;;;41.98;29.52;;;;;;;13.44;100.00;101462.30;3506030;83;98922;-84
2022/10/17 06:44:35;;;;;;;43.87;30.15;;;;;;;13.52;100.00;101464.03;3506100;83;32965;-85
2022/10/17 06:49:36;;;;;;;47.77;31.40;;;;;;;13.60;100.00;101468.48;3620289;80;98975;-84
2022/10/17 06:54:36;;;;;;;49.43;30.40;;;;;;;13.70;100.00;101472.00;3642553;79;31863;-84
2022/10/17 06:59:37;;;;;;;46.17;32.67;;;;;;;13.79;100.00;101469.77;3633386;79;99025;-85
2022/10/17 07:04:38;;;;;;;51.20;31.40;;;;;;;13.87;100.00;101475.61;3629400;81;32019;-85
2022/10/17 07:09:39;;;;;;;42.87;30.00;;;;;;;13.99;100.00;101476.19;3624389;79;99525;-85
2022/10/17 07:14:40;;;;;;;49.98;34.24;;;;;;;14.08;100.00;101482.83;3628219;79;31680;-84
2022/10/17 07:19:42;;;;;;;48.87;33.63;;;;;;;14.19;100.00;101486.53;3617358;79;99329;-87
2022/10/17 07:24:43;;;;;;;44.00;31.48;;;;;;;14.31;100.00;101487.14;3629931;80;31611;-87
2022/10/17 07:29:43;;;;;;;49.47;34.07;;;;;;;14.42;100.00;101481.72;3627643;79;98855;-87
2022/10/17 07:34:44;;;;;;;56.93;35.53;;;;;;;14.55;100.00;101481.09;3633273;79;26560;-87
2022/10/17 07:39:45;;;;;;;50.37;34.13;;;;;;;14.68;100.00;101488.56;3609690;79;99204;-86
2022/10/17 07:44:46;;;;;;;53.37;36.40;;;;;;;14.80;100.00;101486.91;3613769;80;27201;-87
2022/10/17 07:49:47;;;;;;;48.10;35.88;;;;;;;14.95;100.00;101482.54;3633481;80;99215;-85
2022/10/17 07:54:47;;;;;;;52.54;36.08;;;;;;;15.08;100.00;101465.82;3638080;80;35359;-86
2022/10/17 07:59:50;;;;;;;52.83;36.13;;;;;;;15.25;100.00;101475.45;3626088;79;99177;-86
2022/10/17 08:04:51;;;;;;;55.88;33.80;;;;;;;15.39;100.00;101465.34;3626345;79;34875;-88
2022/10/17 08:09:52;;;;;;;50.15;34.50;;;;;;;15.60;100.00;101466.08;3621118;79;99284;-86
2022/10/17 08:14:53;;;;;;;49.67;33.95;;;;;;;15.81;100.00;101469.00;3630981;79;34434;-87
2022/10/17 08:19:53;;;;;;;45.45;33.15;;;;;;;16.02;100.00;101464.97;3611676;79;99628;-87
2022/10/17 08:24:54;;;;;;;50.63;33.02;;;;;;;16.25;100.00;101471.03;3620740;80;30055;-90
2022/10/17 08:29:55;;;;;;;50.05;33.10;;;;;;;16.46;100.00;101476.09;3618004;79;98786;-89
2022/10/17 08:34:56;;;;;;;47.17;30.90;;;;;;;16.96;100.00;101464.53;3627037;80;26196;-90
2022/10/17 08:39:56;;;;;;;50.03;30.70;;;;;;;16.96;100.00;101464.53;3630710;78;99039;-90
2022/10/17 08:45:21;;;;;;;45.85;32.75;;;;;;;17.19;100.00;101470.52;3617717;80;33136;-90
2022/10/17 08:51:03;;;;;;;42.43;30.82;;;;;;;17.39;100.00;101468.97;3627202;80;99469;-90
2022/10/17 08:56:20;;;;;;;38.60;29.12;;;;;;;17.66;100.00;101463.19;3632312;80;32502;-90
2022/10/17 09:01:35;;;;;;;41.55;29.10;;;;;;;18.09;100.00;101461.28;3622636;80;32432;-89
2022/10/17 09:06:42;;;;;;;45.37;28.97;;;;;;;18.55;100.00;101467.52;3626309;80;99410;-87
2022/10/17 09:12:03;;;;;;;38.10;26.87;;;;;;;19.02;100.00;101464.64;3634870;80;32440;-88
2022/10/17 09:17:39;;;;;;;36.73;25.68;;;;;;;19.58;100.00;101464.22;3611391;80;99227;-86
2022/10/17 09:23:00;;;;;;;33.13;23.73;;;;;;;20.14;99.68;101465.05;3628322;79;27394;-90
2022/10/17 09:28:21;;;;;;;36.35;24.07;;;;;;;20.72;98.27;101460.52;3631042;79;99080;-86
2022/10/17 09:33:42;;;;;;;32.87;23.37;;;;;;;21.32;96.66;101468.23;3628725;79;27380;-90
2022/10/17 09:38:50;;;;;;;31.90;22.17;;;;;;;21.98;94.89;101455.06;3623880;79;99789;-89
2022/10/17 09:43:57;;;;;;;30.23;21.97;;;;;;;22.69;92.47;101448.19;3636461;81;32484;-87
2022/10/17 09:49:03;;;;;;;32.30;20.62;;;;;;;23.15;88.87;101447.11;3619359;79;99176;-89
2022/10/17 09:54:13;;;;;;;25.95;19.65;;;;;;;23.45;86.19;101434.94;3630469;79;27532;-87
2022/10/17 09:59:19;;;;;;;26.77;17.45;;;;;;;23.86;85.82;101448.31;3624665;79;99007;-87
2022/10/17 10:04:20;;;;;;;21.48;16.52;;;;;;;24.16;82.79;101447.88;3627265;79;32488;-86
2022/10/17 10:09:24;;;;;;;24.73;16.47;;;;;;;24.33;80.53;101448.78;3624905;80;99416;-88
2022/10/17 10:14:36;;;;;;;25.37;17.10;;;;;;;24.53;79.01;101448.60;3627651;79;27334;-87
2022/10/17 10:19:37;;;;;;;25.02;16.80;;;;;;;24.67;78.41;101451.80;3617557;79;98882;-90
2022/10/17 10:24:38;;;;;;;21.45;16.77;;;;;;;24.77;76.32;101447.88;3645698;79;27626;-88
2022/10/17 10:29:43;;;;;;;20.92;15.13;;;;;;;24.88;75.60;101457.39;3655935;80;99276;-88
2022/10/17 10:34:55;;;;;;;21.70;15.78;;;;;;;25.00;74.85;101455.98;3657731;80;27493;-87
2022/10/17 10:40:04;;;;;;;25.48;14.65;;;;;;;25.10;74.24;101452.66;3637697;80;99137;-92
2022/10/17 10:45:38;;;;;;;21.95;14.35;;;;;;;25.24;73.05;101442.34;3657045;80;27442;-89
2022/10/17 10:51:04;;;;;;;23.20;13.62;;;;;;;25.25;72.02;101425.02;3649038;80;98711;-90
2022/10/17 10:56:22;;;;;;;22.35;13.15;;;;;;;25.35;71.97;101434.35;3645126;80;98826;-89
2022/10/17 11:01:53;;;;;;;18.70;12.05;;;;;;;25.22;69.81;101431.52;3662658;80;27375;-90
2022/10/17 11:07:09;;;;;;;24.30;12.75;;;;;;;25.05;69.39;101434.30;3642402;80;99186;-92
2022/10/17 11:12:39;;;;;;;17.23;11.88;;;;;;;24.86;67.61;101429.70;3646646;80;28234;-88
2022/10/17 11:17:52;;;;;;;21.23;14.03;;;;;;;24.72;69.04;101419.47;3660026;80;99261;-88
2022/10/17 11:23:20;;;;;;;19.55;12.90;;;;;;;24.78;69.43;101421.89;3639402;80;32466;-91
2022/10/17 11:28:24;;;;;;;16.60;11.28;;;;;;;24.67;67.17;101424.25;3611919;79;99197;-89
2022/10/17 11:33:30;;;;;;;16.77;12.03;;;;;;;24.64;68.56;101421.72;3630631;79;27510;-87
2022/10/17 11:38:57;;;;;;;17.30;11.93;;;;;;;24.63;67.93;101417.33;3618099;79;99388;-89
2022/10/17 11:44:31;;;;;;;18.73;12.28;;;;;;;24.58;68.02;101417.89;3623711;80;32537;-91
2022/10/17 11:49:39;;;;;;;20.55;11.60;;;;;;;24.56;67.70;101405.47;3632165;79;99140;-93
2022/10/17 11:54:51;;;;;;;14.85;11.15;;;;;;;24.61;67.68;101405.73;3628419;79;27559;-88
2022/10/17 12:00:12;;;;;;;15.03;11.18;;;;;;;24.56;67.25;101401.24;3609791;79;98926;-90
2022/10/17 12:05:27;;;;;;;15.35;10.48;;;;;;;24.53;67.50;101395.89;3633450;79;27369;-89
2022/10/17 12:10:46;;;;;;;21.07;11.70;;;;;;;24.51;67.00;101390.54;3628598;80;99011;-89
2022/10/17 12:15:46;;;;;;;16.55;10.90;;;;;;;24.44;66.15;101386.55;3610379;81;27530;-86
2022/10/17 12:20:57;;;;;;;18.92;11.90;;;;;;;24.47;66.77;101383.61;3611729;79;98736;-90
2022/10/17 12:26:06;;;;;;;19.37;12.43;;;;;;;24.43;65.36;101382.95;3614761;80;32576;-89
2022/10/17 12:31:20;;;;;;;17.17;11.85;;;;;;;24.39;65.07;101380.06;3636777;80;32496;-88
2022/10/17 12:36:29;;;;;;;18.27;9.83;;;;;;;24.39;65.35;101364.58;3615336;79;99078;-87
2022/10/17 12:41:45;;;;;;;18.00;10.90;;;;;;;24.37;65.49;101367.87;3629781;79;29005;-90
2022/10/17 12:46:52;;;;;;;;;;;;;;;24.39;65.34;101371.62;3624451;80;98771;-89
2022/10/17 12:52:18;;;;;;;19.15;11.68;;;;;;;24.39;63.91;101366.80;3613412;79;27485;-88
2022/10/17 12:57:43;;;;;;;16.67;11.30;;;;;;;24.41;65.55;101362.90;3620770;79;99094;-90
2022/10/17 13:02:44;;;;;;;19.95;12.03;;;;;;;24.46;65.62;101361.57;3610727;81;27275;-89
2022/10/17 13:07:48;;;;;;;16.97;10.78;;;;;;;24.47;65.42;101364.55;3628933;81;99280;-89
2022/10/17 13:12:53;;;;;;;16.10;10.25;;;;;;;24.47;64.47;101354.70;3637933;79;27397;-88
2022/10/17 13:17:59;;;;;;;;;;;;;;;24.40;64.36;101347.26;3626006;79;99216;-90
2022/10/17 13:23:00;;;;;;;16.73;10.40;;;;;;;24.40;63.70;101344.44;3628277;79;27355;-89
2022/10/17 13:28:09;;;;;;;15.20;10.30;;;;;;;24.37;64.32;101341.74;3654402;80;99182;-88
2022/10/17 13:33:32;;;;;;;17.42;10.78;;;;;;;24.40;64.85;101340.83;3662717;80;33073;-93
2022/10/17 13:38:35;;;;;;;16.15;9.93;;;;;;;24.40;64.00;101345.84;3645269;80;99256;-91
2022/10/17 13:43:37;;;;;;;19.92;11.30;;;;;;;24.39;63.98;101334.43;3660607;80;27372;-88
2022/10/17 13:48:38;;;;;;;16.75;10.82;;;;;;;24.38;64.17;101328.64;3620636;80;98929;-89
2022/10/17 13:53:42;;;;;;;15.72;11.03;;;;;;;24.36;63.95;101318.43;3660509;80;32650;-87
2022/10/17 13:58:49;;;;;;;15.08;10.08;;;;;;;24.33;63.96;101317.14;3647210;80;99020;-88
2022/10/17 14:03:51;;;;;;;19.92;11.30;;;;;;;24.26;64.07;101315.33;3664992;79;32592;-86
2022/10/17 14:09:06;;;;;;;17.55;11.05;;;;;;;24.18;63.71;101312.58;3658451;80;99051;-91
2022/10/17 14:14:22;;;;;;;22.17;12.58;;;;;;;24.10;63.83;101314.05;3653964;80;33082;-88
2022/10/17 14:19:31;;;;;;;21.35;10.90;;;;;;;24.01;64.20;101315.91;3660085;80;98988;-88
2022/10/17 14:24:34;;;;;;;21.62;11.50;;;;;;;23.96;64.42;101317.27;3643696;80;33021;-88
2022/10/17 14:29:52;;;;;;;16.50;11.68;;;;;;;23.88;64.60;101315.08;3651950;80;98930;-89
2022/10/17 14:34:56;;;;;;;19.23;10.88;;;;;;;23.75;64.63;101320.66;3660602;80;27399;-89
2022/10/17 14:40:03;;;;;;;19.50;12.75;;;;;;;23.65;64.87;101326.59;3633088;80;98966;-88
2022/10/17 14:45:11;;;;;;;22.30;11.50;;;;;;;23.58;65.09;101320.55;3665083;80;28364;-88
2022/10/17 14:50:20;;;;;;;18.87;12.95;;;;;;;23.48;65.31;101313.84;3640974;80;98726;-87
2022/10/17 14:55:25;;;;;;;20.52;14.33;;;;;;;23.39;65.52;101315.08;3661614;80;28387;-87
2022/10/17 15:00:27;;;;;;;20.77;12.70;;;;;;;23.30;65.76;101314.92;3655451;80;98727;-89
2022/10/17 15:05:28;;;;;;;21.25;12.88;;;;;;;23.18;65.73;101317.05;3655779;80;32444;-88
2022/10/17 15:10:33;;;;;;;19.95;14.07;;;;;;;23.07;66.01;101322.13;3661493;80;99072;-88
2022/10/17 15:15:35;;;;;;;;;;;;;;;22.99;66.26;101316.53;3646542;80;27365;-87
2022/10/17 15:20:37;;;;;;;19.48;13.03;;;;;;;22.90;66.84;101313.55;3664968;80;84972;-87
2022/10/17 15:25:38;;;;;;;26.15;14.47;;;;;;;22.82;67.54;101310.12;3664698;80;27396;-88
2022/10/17 15:30:39;;;;;;;21.55;14.07;;;;;;;22.74;67.88;101309.34;3646939;80;98845;-88
2022/10/17 15:35:41;;;;;;;20.27;13.60;;;;;;;22.65;68.36;101310.55;3643475;80;32554;-88
2022/10/17 15:40:42;;;;;;;20.40;14.00;;;;;;;22.54;68.89;101306.61;3652970;80;98784;-88
2022/10/17 15:45:43;;;;;;;19.73;14.05;;;;;;;22.42;69.42;101308.68;3659642;80;32603;-89
2022/10/17 15:50:44;;;;;;;20.43;15.00;;;;;;;22.31;69.82;101312.34;3657779;80;99107;-88
2022/10/17 15:55:45;;;;;;;21.77;14.63;;;;;;;22.04;70.21;101283.72;3660291;80;33114;-88
2022/10/17 16:00:47;;;;;;;26.10;16.25;;;;;;;22.03;70.72;101316.38;3636645;80;98675;-88
2022/10/17 16:05:48;;;;;;;24.90;15.88;;;;;;;21.91;71.05;101323.42;3649087;80;32518;-86
2022/10/17 16:10:49;;;;;;;24.10;17.50;;;;;;;21.76;71.42;101322.16;3642395;80;99129;-88
2022/10/17 16:15:50;;;;;;;21.80;15.32;;;;;;;21.65;71.71;101322.16;3661106;79;30612;-89
2022/10/17 16:20:51;;;;;;;25.95;16.95;;;;;;;21.52;72.10;101324.80;3663721;80;98974;-89
2022/10/17 16:25:51;;;;;;;21.20;14.58;;;;;;;21.37;72.50;101323.48;3664623;79;31596;-88
2022/10/17 16:30:52;;;;;;;22.95;15.65;;;;;;;21.25;72.90;101329.72;3651849;80;98828;-88
2022/10/17 16:35:54;;;;;;;24.90;16.20;;;;;;;21.10;73.31;101333.98;3659557;80;26166;-87
2022/10/17 16:40:56;;;;;;;22.32;16.00;;;;;;;20.93;73.78;101326.68;3650856;80;98813;-88
2022/10/17 16:45:57;;;;;;;25.35;16.85;;;;;;;20.80;74.12;101334.08;3660415;80;25922;-88
2022/10/17 16:50:58;;;;;;;24.37;16.47;;;;;;;20.68;74.53;101329.67;3653754;80;98900;-88
2022/10/17 16:56:03;;;;;;;26.23;17.50;;;;;;;20.54;74.90;101327.89;3660454;79;25716;-88
2022/10/17 17:01:22;;;;;;;25.88;17.07;;;;;;;20.39;75.43;101332.11;3661542;79;98894;-88
2022/10/17 17:06:27;;;;;;;24.40;17.30;;;;;;;20.25;75.82;101327.33;3656200;79;98867;-89
2022/10/17 17:11:28;;;;;;;23.47;16.57;;;;;;;20.08;76.48;101328.37;3663954;79;25997;-90
2022/10/17 17:16:31;;;;;;;27.30;18.17;;;;;;;19.93;77.18;101329.72;3656797;80;99110;-91
2022/10/17 17:21:34;;;;;;;22.75;16.62;;;;;;;19.81;77.74;101328.89;3661213;80;26611;-90
2022/10/17 17:26:35;;;;;;;30.15;22.42;;;;;;;19.66;78.42;101331.06;3655237;80;98874;-89
2022/10/17 17:31:37;;;;;;;32.73;24.23;;;;;;;19.50;78.99;101335.03;3648491;80;26507;-89
2022/10/17 17:36:39;;;;;;;35.73;26.20;;;;;;;19.35;79.58;101337.00;3654184;79;99169;-89
2022/10/17 17:41:42;;;;;;;27.60;21.42;;;;;;;19.22;80.05;101335.33;3665769;80;26569;-90
2022/10/17 17:46:43;;;;;;;28.87;21.93;;;;;;;19.09;80.43;101333.44;3656268;80;99173;-89
2022/10/17 17:51:45;;;;;;;30.27;21.10;;;;;;;18.94;80.97;101325.80;3663726;80;26445;-89
2022/10/17 17:56:46;;;;;;;27.27;19.98;;;;;;;18.81;81.30;101331.67;3655045;80;99263;-90
2022/10/17 18:01:47;;;;;;;33.17;22.97;;;;;;;18.71;81.88;101324.80;3659908;80;25800;-89
2022/10/17 18:06:47;;;;;;;31.50;23.33;;;;;;;18.59;82.31;101319.72;3643534;80;98849;-88
2022/10/17 18:11:48;;;;;;;38.70;24.33;;;;;;;18.48;82.70;101328.14;3645731;80;26679;-88
2022/10/17 18:16:49;;;;;;;31.95;21.93;;;;;;;18.38;83.06;101311.49;3652932;80;99072;-88
2022/10/17 18:21:50;;;;;;;37.00;23.77;;;;;;;18.26;83.44;101314.11;3654166;80;33435;-87
2022/10/17 18:26:54;;;;;;;32.93;21.97;;;;;;;18.16;83.84;101323.33;3638056;80;99300;-88
2022/10/17 18:31:54;;;;;;;38.17;24.53;;;;;;;18.08;84.23;101316.22;3652738;80;34284;-88
2022/10/17 18:36:55;;;;;;;33.10;22.63;;;;;;;17.98;84.62;101312.11;3647779;80;98861;-88
2022/10/17 18:41:56;;;;;;;33.07;22.87;;;;;;;17.90;84.98;101315.52;3668802;80;33376;-87
2022/10/17 18:46:58;;;;;;;35.97;23.97;;;;;;;17.81;85.31;101311.56;3652209;80;100457;-89
2022/10/17 18:51:59;;;;;;;34.93;23.20;;;;;;;17.75;85.74;101311.80;3640249;80;34210;-88
2022/10/17 18:56:59;;;;;;;34.67;24.83;;;;;;;17.68;86.05;101311.24;3540009;81;99160;-88
2022/10/17 19:02:00;;;;;;;34.67;23.80;;;;;;;17.63;86.51;101312.24;3618395;81;34427;-88
2022/10/17 19:07:01;;;;;;;35.85;25.45;;;;;;;17.55;86.73;101311.47;3604763;81;99131;-88
2022/10/17 19:12:02;;;;;;;34.20;22.50;;;;;;;17.48;86.86;101318.45;3630548;81;26493;-88
2022/10/17 19:17:03;;;;;;;41.63;28.13;;;;;;;17.41;87.28;101305.96;3620258;81;98892;-88
2022/10/17 19:22:04;;;;;;;39.57;25.60;;;;;;;17.31;87.29;101294.81;3616224;81;26793;-88
2022/10/17 19:27:12;;;;;;;37.50;26.93;;;;;;;17.23;87.57;101298.20;3549803;81;98932;-88
2022/10/17 19:32:16;;;;;;;34.30;24.07;;;;;;;17.16;87.95;101298.84;3530628;81;32416;-89
2022/10/17 19:37:17;;;;;;;33.95;22.75;;;;;;;17.08;88.12;101299.45;3518979;81;98928;-89
2022/10/17 19:42:18;;;;;;;37.00;23.67;;;;;;;16.99;88.25;101310.17;3535265;81;25862;-87
2022/10/17 19:47:21;;;;;;;35.97;22.03;;;;;;;16.97;88.34;101318.72;3540226;81;99070;-87
2022/10/17 19:52:26;;;;;;;29.40;20.55;;;;;;;16.91;88.21;101318.34;3543283;81;33446;-88
2022/10/17 19:57:26;;;;;;;32.25;20.80;;;;;;;16.87;88.52;101325.08;3530481;80;99208;-87
2022/10/17 20:02:27;;;;;;;28.77;19.20;;;;;;;16.82;88.52;101329.64;3536398;81;25791;-89
2022/10/17 20:07:38;;;;;;;30.37;19.97;;;;;;;16.78;88.69;101333.81;3516957;81;98999;-87
2022/10/17 20:12:41;;;;;;;33.85;20.92;;;;;;;16.73;88.90;101342.55;3531545;81;33755;-88
2022/10/17 20:17:44;;;;;;;32.45;22.67;;;;;;;16.67;88.93;101339.97;3533615;81;98952;-87
2022/10/17 20:22:45;;;;;;;39.90;24.55;;;;;;;16.62;89.49;101337.58;3543305;81;33280;-89
2022/10/17 20:27:46;;;;;;;27.70;19.13;;;;;;;16.58;88.98;101339.55;3583586;80;99422;-88
2022/10/17 20:32:47;;;;;;;30.70;20.20;;;;;;;16.55;89.54;101345.91;3623614;81;26564;-88
2022/10/17 20:37:48;;;;;;;30.43;20.03;;;;;;;16.51;90.02;101345.11;3614319;80;99215;-88
2022/10/17 20:42:51;;;;;;;31.27;21.27;;;;;;;16.50;90.13;101345.50;3623919;80;26559;-89
2022/10/17 20:47:52;;;;;;;28.13;19.77;;;;;;;16.42;90.00;101346.10;3626229;81;99095;-90
2022/10/17 20:52:53;;;;;;;33.55;22.37;;;;;;;16.34;90.24;101347.23;3623267;81;34288;-88
2022/10/17 20:57:54;;;;;;;35.33;22.87;;;;;;;16.29;90.38;101345.45;3604797;81;99400;-89
2022/10/17 21:02:55;;;;;;;31.77;20.30;;;;;;;16.20;90.43;101349.19;3610724;80;26046;-88
2022/10/17 21:07:55;;;;;;;31.60;21.23;;;;;;;16.15;90.90;101355.92;3611610;81;98901;-89
2022/10/17 21:12:56;;;;;;;34.83;23.80;;;;;;;16.06;90.84;101357.45;3622446;81;32217;-89
2022/10/17 21:17:57;;;;;;;37.03;26.27;;;;;;;16.00;90.92;101349.30;3602000;81;99464;-89
2022/10/17 21:22:59;;;;;;;36.77;23.63;;;;;;;15.90;91.12;101352.25;3622118;81;32277;-88
2022/10/17 21:28:00;;;;;;;34.50;24.20;;;;;;;15.82;91.36;101356.20;3552059;81;98899;-89
2022/10/17 21:33:00;;;;;;;37.13;23.47;;;;;;;15.81;91.96;101364.30;3557402;81;32233;-90
2022/10/17 21:38:02;;;;;;;34.70;23.70;;;;;;;15.76;91.85;101354.95;3522957;82;99176;-88
2022/10/17 21:43:02;;;;;;;35.17;22.27;;;;;;;15.70;92.06;101346.02;3546437;81;32779;-88
2022/10/17 21:48:04;;;;;;;34.20;22.80;;;;;;;15.65;91.93;101350.55;3542326;81;99393;-88
2022/10/17 21:53:04;;;;;;;41.17;24.93;;;;;;;15.59;92.14;101356.27;3556271;81;26643;-87
2022/10/17 21:58:05;;;;;;;34.67;24.07;;;;;;;15.57;92.52;101364.97;3542543;81;98853;-86
2022/10/17 22:03:07;;;;;;;38.87;26.20;;;;;;;15.51;92.63;101367.11;3563558;81;26616;-86
2022/10/17 22:08:08;;;;;;;40.12;25.55;;;;;;;15.46;92.65;101360.53;3550934;81;98880;-85
2022/10/17 22:13:09;;;;;;;38.13;24.23;;;;;;;15.41;92.90;101356.16;3557110;81;26451;-86
2022/10/17 22:18:09;;;;;;;40.00;23.87;;;;;;;15.37;93.00;101358.11;3540831;81;99242;-86
2022/10/17 22:23:10;;;;;;;35.30;23.73;;;;;;;15.31;93.01;101347.75;3559540;81;35421;-86
2022/10/17 22:28:11;;;;;;;39.25;25.45;;;;;;;15.24;93.08;101345.72;3545722;81;99290;-85
2022/10/17 22:33:12;;;;;;;37.88;23.38;;;;;;;15.18;93.26;101345.06;3551181;81;33938;-86
2022/10/17 22:38:13;;;;;;;39.60;25.27;;;;;;;15.13;93.32;101340.69;3546700;81;99190;-84
2022/10/17 22:43:14;;;;;;;40.63;26.33;;;;;;;15.06;93.24;101344.80;3562586;81;33989;-85
2022/10/17 22:48:15;;;;;;;38.27;23.80;;;;;;;15.01;93.76;101344.35;3537379;81;99220;-87
2022/10/17 22:53:25;;;;;;;39.43;25.20;;;;;;;14.94;94.14;101341.53;3553631;81;30054;-85
2022/10/17 22:58:28;;;;;;;35.33;24.47;;;;;;;14.90;94.14;101341.52;3528712;81;98938;-86
2022/10/17 23:03:30;;;;;;;40.58;25.70;;;;;;;14.89;94.47;101348.81;3533481;83;34758;-86